Terminal Aerodrome Forecast
Issued by NWS Wilmington, OH

Current Version | Previous Version | Graphics & Text | Print | Product List | Glossary On
Versions: 1 2 3 4 5 6 7 8 9 10 11 12 13 14 15 16
000
FTUS41 KILN 220017 AAB
TAFILN
TAF AMD
KILN 220017Z 2200/2224 36008KT P6SM -RA BKN060
     FM220900 04012KT P6SM VCSH OVC045
     FM221300 05012KT P6SM -SHRA OVC035
     FM221700 05014KT P6SM VCSH OVC035
     FM221800 05014KT P6SM OVC035=

USA.gov is the U.S. government's official web portal to all federal, state and local government web resources and services.